LEST/SCQ METAR and TAF weather

Enter ICAO airport designator
Station Type Date Time Source
LEST METAR 2021/03/08 11:30 UTC NOAA

LEST 081130Z 04014KT 350V080 9999 FEW022 SCT035 09/03 Q1020 NOSIG


Station Type Date Time Source
LEST Decoded METAR 2021/03/08 11:30 UTC NOAA

Santiago / Labacolla, Spain (LEST) 42-54N 008-26W 367M
Mar 08, 2021 - 06:30 AM EST / 2021.03.08 1130 UTC
Wind: from the NE (040 degrees) at 16 MPH (14 KT) (direction variable):0
Visibility: greater than 7 mile(s):0
Sky conditions: partly cloudy
Temperature: 48 F (9 C)
Dew Point: 37 F (3 C)
Relative Humidity: 66%
Pressure (altimeter): 30.12 in. Hg (1020 hPa)
ob: LEST 081130Z 04014KT 350V080 9999 FEW022 SCT035 09/03 Q1020 NOSIG
cycle: 11

Station Type Date Time Source
LEST TAF 2021/03/08 12:27 UTC NOAA

TAF LEST 081100Z 0812/0912 04009KT 9999 SCT020 SCT035 TX10/0815Z TN00/0906Z
TEMPO 0812/0816 04015G25KT PROB30
TEMPO 0900/0906 4000 BR BKN010

Example: see airport list